createdAt,value
2019-01-31T00:02:43.598Z,64.68
2019-01-31T00:05:58.341Z,64.66
2019-01-31T00:09:01.125Z,64.67
2019-01-31T00:12:16.249Z,64.71
2019-01-31T00:15:12.835Z,64.56
2019-01-31T00:18:05.901Z,65.68
2019-01-31T00:20:56.083Z,67.81
2019-01-31T00:23:49.214Z,66.29
2019-01-31T00:26:42.255Z,65.83
2019-01-31T00:29:32.810Z,65.47
2019-01-31T00:32:31.993Z,64.38
2019-01-31T00:35:27.981Z,64.52
2019-01-31T00:38:27.014Z,65.35
2019-01-31T00:41:41.981Z,64.12
2019-01-31T00:44:50.295Z,63.94
2019-01-31T00:48:03.830Z,64.09
2019-01-31T00:51:00.574Z,64.42
2019-01-31T00:54:03.153Z,66.10
2019-01-31T00:57:11.578Z,65.91
2019-01-31T01:00:11.045Z,65.66
2019-01-31T01:03:03.647Z,65.91
2019-01-31T01:05:54.070Z,66.14
2019-01-31T01:08:44.412Z,66.35
2019-01-31T01:11:55.589Z,65.53
2019-01-31T01:14:57.755Z,65.06
2019-01-31T01:17:47.946Z,65.43
2019-01-31T01:20:50.524Z,63.97
2019-01-31T01:23:46.671Z,63.70
2019-01-31T01:26:43.087Z,64.36
2019-01-31T01:29:42.652Z,64.87
2019-01-31T01:32:41.887Z,64.47
2019-01-31T01:35:32.196Z,65.41
2019-01-31T01:38:43.472Z,64.46
2019-01-31T01:41:33.868Z,63.67
2019-01-31T01:44:27.229Z,64.92
2019-01-31T01:47:20.897Z,66.18
2019-01-31T01:50:23.270Z,66.52
2019-01-31T01:53:49.206Z,67.28
2019-01-31T01:56:52.085Z,66.91
2019-01-31T01:59:45.042Z,66.49
2019-01-31T02:02:41.985Z,65.82
2019-01-31T02:05:53.382Z,66.71
2019-01-31T02:09:01.509Z,66.41
2019-01-31T02:12:09.868Z,67.13
2019-01-31T02:15:19.747Z,65.35
2019-01-31T02:18:10.244Z,65.95
2019-01-31T02:21:22.036Z,65.51
2019-01-31T02:24:11.919Z,66.18
2019-01-31T02:27:27.211Z,66.23
2019-01-31T02:30:29.479Z,66.34
2019-01-31T02:33:20.139Z,65.64
2019-01-31T02:36:19.476Z,64.36
2019-01-31T02:39:15.803Z,64.29
2019-01-31T02:42:40.092Z,64.88
2019-01-31T02:45:47.686Z,63.65
2019-01-31T02:48:37.809Z,63.93
2019-01-31T02:51:44.756Z,63.75
2019-01-31T02:54:41.296Z,64.75
2019-01-31T02:57:40.188Z,63.56
2019-01-31T03:00:42.598Z,63.29
2019-01-31T03:03:50.157Z,62.82
2019-01-31T03:06:59.606Z,64.09
2019-01-31T03:10:08.764Z,64.25
2019-01-31T03:13:01.586Z,64.15
2019-01-31T03:15:52.081Z,64.37
2019-01-31T03:18:50.944Z,63.87
2019-01-31T03:21:47.611Z,63.01
2019-01-31T03:25:02.785Z,62.75
2019-01-31T03:27:55.643Z,62.05
2019-01-31T03:31:21.741Z,61.42
2019-01-31T03:34:45.443Z,60.33
2019-01-31T03:37:48.296Z,60.34
2019-01-31T03:40:44.116Z,59.53
2019-01-31T03:43:37.307Z,59.89
2019-01-31T03:46:33.425Z,59.37
2019-01-31T03:49:23.315Z,59.18
2019-01-31T03:52:44.325Z,58.72
2019-01-31T03:55:37.487Z,59.49
2019-01-31T03:58:30.848Z,60.87
2019-01-31T04:01:38.450Z,62.04
2019-01-31T04:04:32.035Z,61.61
2019-01-31T04:07:19.232Z,60.87
2019-01-31T04:10:18.748Z,60.19
2019-01-31T04:12:58.183Z,59.40
2019-01-31T04:15:46.325Z,59.36
2019-01-31T04:18:33.092Z,59.38
2019-01-31T04:21:19.889Z,59.12
2019-01-31T04:24:07.508Z,58.57
2019-01-31T04:26:55.090Z,58.29
2019-01-31T04:29:42.616Z,58.37
2019-01-31T04:32:29.936Z,58.36
2019-01-31T04:35:17.287Z,58.18
2019-01-31T04:38:04.586Z,58.32
2019-01-31T04:40:51.695Z,58.37
2019-01-31T04:43:39.049Z,58.10
2019-01-31T04:46:26.548Z,57.75
2019-01-31T04:49:14.336Z,57.65
2019-01-31T04:52:01.412Z,57.46
2019-01-31T04:54:49.022Z,57.31
2019-01-31T04:57:36.446Z,56.96
2019-01-31T05:00:23.870Z,56.65
2019-01-31T05:03:11.712Z,56.88
2019-01-31T05:05:59.094Z,56.86
2019-01-31T05:08:46.860Z,56.93
2019-01-31T05:11:34.591Z,56.71
2019-01-31T05:14:22.120Z,56.92
2019-01-31T05:17:10.055Z,56.85
2019-01-31T05:19:57.477Z,57.17
2019-01-31T05:22:45.136Z,57.32
2019-01-31T05:25:32.252Z,57.35
2019-01-31T05:28:19.084Z,58.18
2019-01-31T05:31:06.068Z,58.71
2019-01-31T05:33:53.143Z,58.60
2019-01-31T05:36:40.253Z,58.59
2019-01-31T05:39:27.296Z,58.00
2019-01-31T05:42:15.645Z,57.51
2019-01-31T05:45:03.069Z,57.28
2019-01-31T05:47:50.086Z,57.19
2019-01-31T05:50:37.408Z,57.04
2019-01-31T05:53:24.853Z,57.21
2019-01-31T05:56:12.248Z,58.31
2019-01-31T05:58:59.365Z,60.06
2019-01-31T06:01:46.992Z,60.28
2019-01-31T06:04:34.522Z,60.11
2019-01-31T06:07:23.070Z,61.61
2019-01-31T06:10:12.448Z,61.50
2019-01-31T06:12:59.866Z,61.29
2019-01-31T06:15:47.183Z,60.86
2019-01-31T06:18:34.533Z,60.40
2019-01-31T06:21:22.035Z,61.91
2019-01-31T06:24:12.736Z,62.20
2019-01-31T06:26:59.877Z,61.89
2019-01-31T06:29:47.174Z,61.66
2019-01-31T06:32:34.597Z,61.15
2019-01-31T06:35:24.274Z,61.24
2019-01-31T06:38:11.492Z,61.19
2019-01-31T06:40:59.033Z,61.50
2019-01-31T06:43:46.337Z,63.68
2019-01-31T06:46:33.966Z,64.46
2019-01-31T06:49:21.188Z,63.64
2019-01-31T06:52:08.250Z,63.21
2019-01-31T06:54:55.356Z,62.58
2019-01-31T06:57:42.653Z,62.35
2019-01-31T07:00:29.908Z,61.57
2019-01-31T07:03:17.101Z,60.89
2019-01-31T07:06:04.899Z,61.09
2019-01-31T07:08:52.233Z,61.06
2019-01-31T07:11:39.349Z,61.79
2019-01-31T07:14:27.084Z,62.41
2019-01-31T07:17:14.509Z,62.71
2019-01-31T07:20:01.632Z,62.96
2019-01-31T07:22:48.843Z,63.33
2019-01-31T07:25:37.286Z,62.84
2019-01-31T07:28:24.828Z,62.49
2019-01-31T07:31:13.476Z,62.65
2019-01-31T07:34:01.913Z,62.47
2019-01-31T07:36:49.245Z,62.13
2019-01-31T07:39:36.604Z,61.93
2019-01-31T07:42:24.087Z,61.61
2019-01-31T07:45:17.762Z,61.59
2019-01-31T07:48:05.894Z,61.26
2019-01-31T07:50:54.245Z,61.51
2019-01-31T07:53:41.567Z,61.04
2019-01-31T07:56:29.344Z,60.75
2019-01-31T07:59:16.408Z,60.59
2019-01-31T08:02:04.145Z,60.48
2019-01-31T08:04:51.462Z,60.24
2019-01-31T08:07:39.090Z,60.15
2019-01-31T08:10:38.331Z,59.40
2019-01-31T08:13:25.773Z,59.37
2019-01-31T08:16:12.633Z,59.31
2019-01-31T08:19:00.359Z,59.19
2019-01-31T08:21:47.986Z,59.07
2019-01-31T08:24:35.001Z,58.94
2019-01-31T08:27:22.073Z,58.75
2019-01-31T08:30:14.877Z,58.47
2019-01-31T08:33:01.872Z,58.32
2019-01-31T08:35:49.000Z,57.37
2019-01-31T08:38:36.786Z,56.31
2019-01-31T08:41:24.098Z,57.28
2019-01-31T08:44:11.385Z,55.66
2019-01-31T08:46:58.738Z,55.10
2019-01-31T08:49:46.224Z,56.16
2019-01-31T08:52:33.544Z,56.18
2019-01-31T08:55:20.971Z,54.55
2019-01-31T08:58:08.803Z,53.47
2019-01-31T09:00:56.532Z,54.38
2019-01-31T09:03:43.857Z,53.99
2019-01-31T09:06:31.186Z,53.87
2019-01-31T09:09:19.312Z,54.17
2019-01-31T09:12:15.089Z,53.70
2019-01-31T09:14:55.903Z,53.44
2019-01-31T09:17:43.244Z,52.48
2019-01-31T09:20:40.273Z,52.49
2019-01-31T09:23:46.240Z,52.09
2019-01-31T09:26:41.699Z,49.99
2019-01-31T09:29:34.670Z,51.97
2019-01-31T09:32:27.754Z,55.29
2019-01-31T09:35:20.915Z,53.36
2019-01-31T09:38:20.735Z,51.15
2019-01-31T09:41:28.325Z,51.38
2019-01-31T09:44:30.492Z,53.82
2019-01-31T09:47:23.696Z,53.69
2019-01-31T09:50:28.104Z,52.68
2019-01-31T09:53:51.439Z,50.84
2019-01-31T09:57:19.005Z,50.24
2019-01-31T10:00:27.567Z,50.51
2019-01-31T10:03:42.941Z,51.20
2019-01-31T10:06:33.091Z,52.07
2019-01-31T10:09:23.303Z,51.23
2019-01-31T10:12:16.816Z,51.18
2019-01-31T10:15:21.830Z,52.63
2019-01-31T10:18:18.341Z,54.03
2019-01-31T10:21:15.165Z,54.71
2019-01-31T10:24:17.833Z,52.93
2019-01-31T10:27:28.928Z,55.46
2019-01-31T10:30:22.184Z,54.11
2019-01-31T10:33:24.772Z,53.67
2019-01-31T10:36:30.527Z,52.60
2019-01-31T10:39:35.734Z,49.92
2019-01-31T10:42:28.481Z,49.39
2019-01-31T10:45:24.807Z,48.44
2019-01-31T10:48:33.326Z,48.80
2019-01-31T10:51:26.620Z,49.99
2019-01-31T10:54:23.155Z,49.53
2019-01-31T10:57:16.931Z,50.71
2019-01-31T11:00:12.351Z,50.30
2019-01-31T11:03:37.294Z,48.94
2019-01-31T11:06:33.887Z,47.30
2019-01-31T11:09:36.477Z,45.89
2019-01-31T11:12:35.684Z,46.95
2019-01-31T11:15:43.978Z,44.97
2019-01-31T11:18:40.618Z,43.68
2019-01-31T11:21:42.686Z,44.76
2019-01-31T11:24:47.813Z,44.34
2019-01-31T11:27:59.210Z,43.18
2019-01-31T11:31:05.575Z,43.87
2019-01-31T11:34:14.402Z,43.69
2019-01-31T11:37:13.605Z,42.31
2019-01-31T11:40:37.690Z,43.44
2019-01-31T11:43:31.765Z,43.29
2019-01-31T11:46:39.980Z,43.74
2019-01-31T11:49:45.307Z,42.46
2019-01-31T11:52:45.442Z,41.54
2019-01-31T11:55:54.481Z,42.53
2019-01-31T11:58:50.295Z,42.01
2019-01-31T12:01:38.333Z,42.11
2019-01-31T12:04:25.654Z,42.10
2019-01-31T12:07:13.558Z,42.33
2019-01-31T12:10:01.018Z,43.47
2019-01-31T12:12:48.440Z,41.98
2019-01-31T12:15:36.065Z,42.47
2019-01-31T12:18:23.294Z,41.14
2019-01-31T12:21:10.790Z,43.04
2019-01-31T12:23:58.133Z,43.21
2019-01-31T12:26:45.459Z,41.86
2019-01-31T12:29:32.981Z,41.86
2019-01-31T12:32:20.694Z,41.19
2019-01-31T12:35:08.609Z,42.27
2019-01-31T12:37:55.777Z,42.23
2019-01-31T12:40:43.507Z,41.42
2019-01-31T12:43:35.215Z,42.40
2019-01-31T12:46:19.575Z,42.33
2019-01-31T12:49:07.303Z,42.87
2019-01-31T12:51:55.242Z,41.72
2019-01-31T12:54:42.667Z,42.16
2019-01-31T12:57:30.605Z,42.70
2019-01-31T13:00:27.145Z,42.15
2019-01-31T13:03:14.360Z,43.46
2019-01-31T13:06:02.393Z,41.77
2019-01-31T13:08:50.129Z,41.68
2019-01-31T13:11:37.857Z,41.03
2019-01-31T13:14:24.769Z,42.64
2019-01-31T13:17:12.406Z,40.88
2019-01-31T13:20:00.543Z,41.49
2019-01-31T13:22:49.547Z,41.23
2019-01-31T13:25:37.138Z,41.65
2019-01-31T13:28:24.663Z,41.00
2019-01-31T13:31:11.976Z,42.17
2019-01-31T13:33:58.886Z,42.28
2019-01-31T13:36:46.423Z,42.87
2019-01-31T13:39:33.744Z,42.49
2019-01-31T13:42:21.263Z,42.47
2019-01-31T13:45:11.697Z,43.06
2019-01-31T13:48:02.164Z,43.14
2019-01-31T13:50:49.541Z,42.07
2019-01-31T13:53:37.334Z,43.99
2019-01-31T13:56:24.265Z,43.38
2019-01-31T13:59:11.641Z,43.08
2019-01-31T14:01:59.065Z,42.46
2019-01-31T14:04:46.695Z,42.62
2019-01-31T14:07:33.815Z,42.08
2019-01-31T14:10:29.576Z,42.32
2019-01-31T14:13:16.755Z,43.53
2019-01-31T14:16:04.480Z,43.32
2019-01-31T14:18:53.484Z,43.34
2019-01-31T14:21:40.649Z,43.73
2019-01-31T14:24:28.092Z,44.51
2019-01-31T14:27:15.816Z,44.74
2019-01-31T14:30:03.040Z,43.70
2019-01-31T14:32:50.870Z,44.29
2019-01-31T14:35:38.807Z,45.10
2019-01-31T14:38:26.230Z,45.65
2019-01-31T14:41:13.344Z,46.17
2019-01-31T14:44:00.975Z,46.62
2019-01-31T14:46:47.948Z,47.38
2019-01-31T14:49:35.211Z,47.77
2019-01-31T14:52:22.733Z,47.53
2019-01-31T14:55:11.437Z,47.98
2019-01-31T14:57:58.915Z,48.32
2019-01-31T15:00:46.548Z,48.09
2019-01-31T15:03:34.174Z,48.41
2019-01-31T15:06:21.497Z,48.60
2019-01-31T15:09:09.432Z,49.11
2019-01-31T15:11:56.753Z,49.59
2019-01-31T15:14:43.664Z,49.96
2019-01-31T15:17:30.793Z,49.81
2019-01-31T15:20:34.440Z,49.67
2019-01-31T15:23:13.099Z,50.18
2019-01-31T15:26:00.424Z,49.91
2019-01-31T15:28:47.439Z,50.00
2019-01-31T15:31:34.864Z,50.20
2019-01-31T15:34:22.656Z,50.37
2019-01-31T15:37:10.333Z,49.85
2019-01-31T15:39:59.508Z,49.82
2019-01-31T15:42:48.958Z,49.17
2019-01-31T15:45:35.568Z,49.35
2019-01-31T15:48:25.379Z,49.61
2019-01-31T15:51:12.769Z,50.04
2019-01-31T15:54:00.483Z,50.21
2019-01-31T15:56:47.971Z,50.28
2019-01-31T15:59:35.553Z,49.73
2019-01-31T16:02:22.628Z,49.80
2019-01-31T16:05:18.848Z,49.43
2019-01-31T16:07:59.749Z,49.74
2019-01-31T16:10:47.550Z,49.75
2019-01-31T16:13:34.932Z,49.66
2019-01-31T16:16:22.043Z,49.30
2019-01-31T16:19:09.679Z,49.69
2019-01-31T16:21:56.894Z,49.67
2019-01-31T16:24:44.623Z,49.36
2019-01-31T16:27:32.460Z,49.80
2019-01-31T16:30:20.814Z,50.27
2019-01-31T16:33:08.229Z,50.46
2019-01-31T16:35:55.717Z,50.07
2019-01-31T16:38:42.989Z,50.46
2019-01-31T16:41:30.401Z,50.64
2019-01-31T16:44:18.128Z,50.45
2019-01-31T16:47:06.077Z,50.51
2019-01-31T16:49:54.922Z,49.42
2019-01-31T16:52:42.049Z,49.41
2019-01-31T16:55:30.374Z,49.18
2019-01-31T16:58:17.914Z,49.02
2019-01-31T17:01:06.182Z,49.08
2019-01-31T17:03:53.789Z,49.18
2019-01-31T17:06:41.308Z,49.21
2019-01-31T17:09:28.940Z,49.36
2019-01-31T17:12:16.884Z,49.38
2019-01-31T17:15:05.735Z,49.77
2019-01-31T17:17:53.197Z,49.97
2019-01-31T17:20:42.148Z,50.02
2019-01-31T17:23:29.528Z,50.22
2019-01-31T17:26:16.860Z,50.40
2019-01-31T17:29:03.978Z,50.87
2019-01-31T17:31:51.201Z,51.77
2019-01-31T17:34:38.533Z,52.22
2019-01-31T17:37:26.249Z,53.02
2019-01-31T17:40:22.278Z,53.96
2019-01-31T17:43:09.802Z,54.33
2019-01-31T17:45:57.534Z,54.51
2019-01-31T17:48:44.964Z,54.74
2019-01-31T17:51:32.492Z,54.68
2019-01-31T17:54:19.856Z,54.63
2019-01-31T17:57:07.505Z,54.75
2019-01-31T17:59:54.654Z,55.01
2019-01-31T18:02:45.391Z,55.24
2019-01-31T18:05:31.039Z,55.51
2019-01-31T18:08:18.359Z,55.86
2019-01-31T18:11:05.788Z,56.50
2019-01-31T18:13:53.104Z,56.47
2019-01-31T18:16:40.529Z,56.69
2019-01-31T18:19:28.056Z,56.21
2019-01-31T18:22:15.183Z,55.81
2019-01-31T18:25:02.706Z,55.79
2019-01-31T18:27:52.967Z,55.20
2019-01-31T18:30:39.307Z,55.13
2019-01-31T18:33:27.601Z,55.36
2019-01-31T18:36:15.977Z,55.56
2019-01-31T18:39:05.144Z,55.87
2019-01-31T18:41:52.885Z,55.86
2019-01-31T18:44:40.105Z,55.93
2019-01-31T18:47:27.585Z,56.02
2019-01-31T18:50:18.853Z,55.97
2019-01-31T18:53:06.321Z,55.49
2019-01-31T18:55:53.309Z,55.34
2019-01-31T18:58:40.616Z,55.34
2019-01-31T19:01:27.711Z,55.36
2019-01-31T19:04:15.241Z,55.07
2019-01-31T19:07:02.587Z,55.53
2019-01-31T19:09:50.040Z,55.86
2019-01-31T19:12:37.202Z,56.27
2019-01-31T19:15:26.433Z,56.38
2019-01-31T19:18:13.583Z,56.20
2019-01-31T19:21:00.905Z,56.07
2019-01-31T19:23:48.534Z,55.86
2019-01-31T19:26:36.266Z,56.18
2019-01-31T19:29:24.424Z,56.40
2019-01-31T19:32:11.891Z,56.28
2019-01-31T19:34:59.167Z,56.45
2019-01-31T19:37:46.575Z,56.39
2019-01-31T19:40:36.573Z,56.74
2019-01-31T19:43:23.577Z,56.70
2019-01-31T19:46:16.635Z,56.57
2019-01-31T19:48:59.771Z,56.78
2019-01-31T19:51:47.074Z,57.15
2019-01-31T19:54:34.397Z,56.90
2019-01-31T19:57:21.779Z,56.52
2019-01-31T20:00:12.522Z,56.90
2019-01-31T20:02:59.786Z,56.26
2019-01-31T20:05:46.957Z,55.65
2019-01-31T20:08:34.178Z,55.43
2019-01-31T20:11:21.608Z,55.16
2019-01-31T20:14:09.238Z,55.78
2019-01-31T20:16:56.850Z,55.89
2019-01-31T20:19:44.284Z,55.50
2019-01-31T20:22:32.222Z,55.21
2019-01-31T20:25:20.257Z,55.38
2019-01-31T20:28:07.683Z,55.24
2019-01-31T20:30:55.003Z,54.91
2019-01-31T20:33:42.358Z,54.71
2019-01-31T20:36:32.051Z,54.40
2019-01-31T20:39:19.429Z,54.46
2019-01-31T20:42:06.733Z,54.58
2019-01-31T20:44:54.279Z,54.67
2019-01-31T20:47:41.412Z,55.90
2019-01-31T20:50:31.174Z,55.70
2019-01-31T20:53:18.798Z,55.33
2019-01-31T20:56:06.250Z,55.67
2019-01-31T20:58:53.935Z,55.37
2019-01-31T21:01:41.275Z,55.35
2019-01-31T21:04:28.660Z,56.28
2019-01-31T21:07:16.144Z,57.00
2019-01-31T21:10:05.085Z,57.67
2019-01-31T21:12:52.922Z,57.39
2019-01-31T21:15:40.052Z,56.77
2019-01-31T21:18:27.254Z,57.18
2019-01-31T21:21:15.214Z,57.99
2019-01-31T21:24:02.511Z,57.50
2019-01-31T21:26:49.357Z,58.62
2019-01-31T21:29:36.745Z,58.28
2019-01-31T21:32:23.950Z,57.80
2019-01-31T21:35:11.593Z,57.38
2019-01-31T21:37:59.127Z,57.37
2019-01-31T21:40:47.362Z,57.06
2019-01-31T21:43:35.094Z,56.94
2019-01-31T21:46:22.210Z,56.61
2019-01-31T21:49:10.212Z,56.78
2019-01-31T21:51:57.581Z,57.85
2019-01-31T21:54:44.618Z,57.56
2019-01-31T21:57:32.007Z,57.37
2019-01-31T22:00:23.222Z,57.32
2019-01-31T22:03:10.499Z,57.74
2019-01-31T22:05:57.585Z,57.62
2019-01-31T22:08:44.674Z,57.78
2019-01-31T22:11:32.100Z,57.67
2019-01-31T22:14:19.725Z,57.38
2019-01-31T22:17:14.326Z,57.95
2019-01-31T22:19:55.702Z,58.63
2019-01-31T22:22:43.231Z,58.70
2019-01-31T22:25:30.775Z,58.58
2019-01-31T22:28:18.590Z,58.99
2019-01-31T22:31:06.025Z,58.37
2019-01-31T22:33:53.960Z,59.36
2019-01-31T22:36:43.560Z,59.63
2019-01-31T22:39:30.819Z,59.15
2019-01-31T22:42:18.370Z,58.95
2019-01-31T22:45:09.479Z,59.08
2019-01-31T22:47:57.108Z,59.56
2019-01-31T22:50:44.434Z,60.25
2019-01-31T22:53:31.670Z,60.78
2019-01-31T22:56:18.765Z,59.83
2019-01-31T22:59:06.601Z,58.73
2019-01-31T23:01:53.920Z,58.31
2019-01-31T23:04:41.037Z,58.46
2019-01-31T23:07:28.572Z,58.69
2019-01-31T23:10:16.192Z,58.97
2019-01-31T23:13:03.513Z,59.29
2019-01-31T23:15:50.631Z,58.94
2019-01-31T23:18:38.160Z,58.73
2019-01-31T23:21:25.786Z,58.74
2019-01-31T23:24:13.524Z,58.82
2019-01-31T23:27:01.247Z,58.82
2019-01-31T23:29:48.877Z,58.80
2019-01-31T23:32:36.153Z,58.63
2019-01-31T23:35:24.032Z,59.27
2019-01-31T23:38:11.253Z,59.75
2019-01-31T23:40:59.007Z,59.53
2019-01-31T23:43:46.366Z,59.52
2019-01-31T23:46:33.733Z,59.42
2019-01-31T23:49:21.425Z,59.09
2019-01-31T23:52:08.375Z,59.03
2019-01-31T23:54:55.522Z,59.46
2019-01-31T23:57:42.773Z,60.06
